Argo — SMOH — position and weather

sailwx.info

Track history (hours):
 
Tides and Currents Weather Stations Pressure Air Temp Water Temp Dewpoint Dewpoint Depression Visibility Wind Speed Wind Dir Waves Ship Positions

Argo

Last reported at 2016-Jun-17 00:28 UTC. Time now 2016-Jun-25 23:21 UTC.
Position N 56°09' E 015°35'.
Warning: this ship's position is 8 days out of date.

Length 26 m.

Type: Military. MMSI: 265591600.

Date/timePositionNaut miles runAvg speedWind from/ knotsBaromVisibWave heightAir tempDewpointWater temp
2016-Jun-17 00:28N 56°09' E 015°35'1311.0
2016-Jun-16 23:15N 56°08' E 015°59'6422.0
2016-Jun-16 20:20N 57°08' E 016°42'9022.0
2016-Jun-16 16:14N 58°35' E 017°20'811.9
2016-Jun-16 15:33N 58°40' E 017°06'0 0.0
2016-Jun-16 14:33N 58°40' E 017°06'0 0.0
2016-Jun-16 13:33N 58°40' E 017°06'0 0.0
2016-Jun-16 12:33N 58°40' E 017°06'2 2.1
2016-Jun-16 11:30N 58°40' E 017°10'1 0.5
2016-Jun-16 10:30N 58°41' E 017°10'3 3.0
2016-Jun-16 09:34N 58°41' E 017°15'5 0.3
2016-Jun-15 20:17N 58°40' E 017°07'0 0.0
2016-Jun-15 19:33N 58°40' E 017°07'0 0.0
2016-Jun-15 18:33N 58°40' E 017°07'0 0.0
2016-Jun-15 17:33N 58°40' E 017°07'0 0.0
2016-Jun-15 16:33N 58°40' E 017°07'0 0.0
2016-Jun-15 15:33N 58°40' E 017°07'0 0.0
2016-Jun-15 14:33N 58°40' E 017°07'2 1.9
2016-Jun-15 13:32N 58°38' E 017°06'5 1.8
2016-Jun-15 10:33N 58°43' E 017°09'2 2.0
2016-Jun-15 09:33N 58°42' E 017°12'4 0.2
2016-Jun-14 15:28N 58°40' E 017°07'3 3.3
2016-Jun-14 14:33N 58°37' E 017°10'5 4.8
2016-Jun-14 13:32N 58°40' E 017°17'5 0.2
2016-Jun-13 15:33N 58°40' E 017°07'4 4.4
2016-Jun-13 14:33N 58°41' E 017°16'7 7.4
2016-Jun-13 13:33N 58°37' E 017°03'9 6.8
2016-Jun-13 12:18N 58°39' E 017°20'3 1.1
2016-Jun-13 09:28N 58°39' E 017°14'  
2016-Jun-10 10:29N 57°18' E 016°44'  
Track history (hours):
 
Tides and Currents Weather Stations Pressure Air Temp Water Temp Dewpoint Dewpoint Depression Visibility Wind Speed Wind Dir Waves Ship Positions

Argo

Last reported at 2016-Jun-17 00:28 UTC. Time now 2016-Jun-25 23:21 UTC.
Position N 56°09' E 015°35'.
Warning: this ship's position is 8 days out of date.

Length 26 m.

Type: Military. MMSI: 265591600.

Date/timePositionNaut miles runAvg speedWind from/ knotsBaromVisibWave heightAir tempDewpointWater temp
2016-Jun-17 00:28N 56°09' E 015°35'1311.0
2016-Jun-16 23:15N 56°08' E 015°59'6422.0
2016-Jun-16 20:20N 57°08' E 016°42'9022.0
2016-Jun-16 16:14N 58°35' E 017°20'811.9
2016-Jun-16 15:33N 58°40' E 017°06'0 0.0
2016-Jun-16 14:33N 58°40' E 017°06'0 0.0
2016-Jun-16 13:33N 58°40' E 017°06'0 0.0
2016-Jun-16 12:33N 58°40' E 017°06'2 2.1
2016-Jun-16 11:30N 58°40' E 017°10'1 0.5
2016-Jun-16 10:30N 58°41' E 017°10'3 3.0
2016-Jun-16 09:34N 58°41' E 017°15'5 0.3
2016-Jun-15 20:17N 58°40' E 017°07'0 0.0
2016-Jun-15 19:33N 58°40' E 017°07'0 0.0
2016-Jun-15 18:33N 58°40' E 017°07'0 0.0
2016-Jun-15 17:33N 58°40' E 017°07'0 0.0
2016-Jun-15 16:33N 58°40' E 017°07'0 0.0
2016-Jun-15 15:33N 58°40' E 017°07'0 0.0
2016-Jun-15 14:33N 58°40' E 017°07'2 1.9
2016-Jun-15 13:32N 58°38' E 017°06'5 1.8
2016-Jun-15 10:33N 58°43' E 017°09'2 2.0
2016-Jun-15 09:33N 58°42' E 017°12'4 0.2
2016-Jun-14 15:28N 58°40' E 017°07'3 3.3
2016-Jun-14 14:33N 58°37' E 017°10'5 4.8
2016-Jun-14 13:32N 58°40' E 017°17'5 0.2
2016-Jun-13 15:33N 58°40' E 017°07'4 4.4
2016-Jun-13 14:33N 58°41' E 017°16'7 7.4
2016-Jun-13 13:33N 58°37' E 017°03'9 6.8
2016-Jun-13 12:18N 58°39' E 017°20'3 1.1
2016-Jun-13 09:28N 58°39' E 017°14'  
2016-Jun-10 10:29N 57°18' E 016°44'  

Dump ship's entire track history